x

East Dellwood (46207) Wave Buoy

10:00am - Sun 24th Jul 2016 All times are PDT. -7 hours from GMT.

  • Sig Wave height 4.9ft
  • Peak Period 8s
  • Wind
    7mph, 9mph gusts
  • Sea Temp 60°f
  • Air Temp 59°f
  • Sea Pressure 1020.9mb
  • East Dellwood
  • East Dellwood

More Historic Weather Station data

Upgrade to MSW Pro to gain access to the past 30 days of data for over 8000 Wavebouys and Weather Stations around the globe.

Join Pro

Comparision Forecast

View Surf forecast
   
Sun 07/24 10:00am 5ft 8s 7 9 mph 1020.9mb 60f 59f
9:00am 5.5ft 7s 9
mph
1020.9mb 60f 59f
8:00am 5.5ft 8s 9 11 mph 1020.4mb 60f 59f
7:00am 5.5ft 8s 9 11 mph 1020.1mb 60f 59f
6:00am 5ft 8s 11 13 mph 1019.8mb 60f 59f
5:00am 5ft 7s 11 13 mph 1019.7mb 60f 59f
4:00am 5ft 7s 13 18 mph 1019.8mb 60f 59f
3:00am 5ft 8s 13 18 mph 1020mb 60f 59f
2:00am 5ft 7s 13 18 mph 1020.3mb 60f 59f
1:00am 5ft 7s 16 20 mph 1020.8mb 60f 58f
12:00am 4.5ft 7s 13 18 mph 1021.1mb 60f 59f
Sat 07/23 11:00pm 4.5ft 6s 13 18 mph 1021.6mb 60f 59f
10:00pm 5ft 7s 16 18 mph 1021.6mb 60f 59f
9:00pm 5ft 7s 16 18 mph 1021.6mb 60f 59f
8:00pm 5ft 7s 13 16 mph 1021.6mb 60f 59f
7:00pm 5ft 7s 13 18 mph 1021.4mb 60f 58f
6:00pm 5ft 7s 18 20 mph 1021.6mb 60f 59f
5:00pm 5ft 7s 16 20 mph 1021.9mb 60f 59f
4:00pm 5ft 7s 16 20 mph 1022.3mb 60f 59f
3:00pm 4.5ft 6s 16 18 mph 1022.4mb 60f 59f
2:00pm 4.5ft 6s 16 20 mph 1022.5mb 60f 59f
1:00pm 4.5ft 6s 16 18 mph 1022.5mb 60f 59f
12:00pm 4.5ft 15s 16 18 mph 1022.6mb 60f 59f
11:00am 4.5ft 6s 16 20 mph 1022.3mb 60f 59f
10:00am 4ft 6s 16 18 mph 1022.3mb 60f 59f
9:00am 4.5ft 7s 13 16 mph 1022.2mb 60f 59f
8:00am 4.5ft 14s 13 16 mph 1022mb 60f 58f
7:00am 4.5ft 6s 11 13 mph 1022mb 60f 58f
6:00am 4.5ft 6s 16 18 mph 1021.7mb 60f 58f
5:00am 4ft 8s 13 16 mph 1021.5mb 60f 58f
4:00am 4.5ft 8s 11 13 mph 1021.6mb 60f 58f
3:00am 4.5ft 15s 13 18 mph 1021.9mb 60f 58f
2:00am 4.5ft 6s 13
mph
1022.2mb 60f 58f
1:00am 4.5ft 6s 16 18 mph 1022.5mb 60f 58f
12:00am 4.5ft 6s 16 18 mph 1022.7mb 60f 58f
Fri 07/22 11:00pm 4.5ft 5s 13 18 mph 1022.7mb 60f 58f
10:00pm 4.5ft 8s 11 13 mph 1022.8mb 60f 57f
9:00pm 4.5ft 8s 16 20 mph 1022.7mb 60f 57f
8:00pm 4.5ft 8s 13 16 mph 1022.5mb 60f 59f
7:00pm 4.5ft 8s 18 20 mph 1022.5mb 60f 57f
6:00pm 4.5ft 15s 16 20 mph 1022.8mb 60f 57f
5:00pm 4ft 15s 16 18 mph 1022.7mb 60f 59f
4:00pm 4ft 14s 18 20 mph 1022.7mb 60f 59f
3:00pm 4ft 8s 13 16 mph 1022.8mb 60f 58f
2:00pm 4ft 8s 13 18 mph 1022.8mb 60f 57f
1:00pm 3.5ft 15s 11 13 mph 1023mb 60f 58f
12:00pm 3.5ft 8s 13 16 mph 1022.6mb 60f 57f
11:00am 4ft 8s 11 13 mph 1022.7mb 60f 57f
10:00am 3.5ft 8s 18 22 mph 1022.5mb 60f 56f
9:00am 3.5ft 8s 13 16 mph 1022mb 60f 58f
8:00am 3.5ft 8s 11 16 mph 1021.6mb 60f 57f
7:00am 3.5ft 8s 11 13 mph 1021.5mb 60f 56f
6:00am 3.5ft 14s 11 13 mph 1021.1mb 60f 58f
5:00am 3.5ft 8s 13 16 mph 1020.5mb 60f 58f
4:00am 3.5ft 8s 9 16 mph 1020.4mb 61f 59f
3:00am 3.5ft 8s 9 11 mph 1020.4mb 61f 59f
2:00am 3.5ft 15s 4 9 mph 1020.5mb 61f 59f
1:00am 3.5ft 15s 9 11 mph 1020.7mb 61f 58f
12:00am 3.5ft 9s 11 13 mph 1020.6mb 61f 58f
Thu 07/21 11:00pm 3.5ft 15s 11 13 mph 1020.7mb 61f 58f
10:00pm 3.5ft 8s 9 13 mph 1020.7mb 61f 59f
9:00pm 4ft 8s 7 9 mph 1020.6mb 61f 58f
8:00pm 4ft 8s 9 11 mph 1020.8mb 61f 58f
7:00pm 3.5ft 8s 13
mph
1020.6mb 61f 58f
6:00pm 4ft 8s 2 4 mph 1020.7mb 63f 61f
5:00pm 4ft 8s 4 7 mph 1020.8mb 62f 61f
4:00pm 4ft 8s 2 4 mph 1021mb 62f 61f
3:00pm 3.5ft 8s 4
mph
1021.1mb 61f 60f
2:00pm 3.5ft 8s  -  2 mph 1021mb 61f 60f
1:00pm 3.5ft 8s 2 4 mph 1021mb 61f 59f
12:00pm 3.5ft 8s 2 4 mph 1021mb 60f 58f
11:00am 3.5ft 8s 2 4 mph 1020.9mb 60f 56f
10:00am 3.5ft 8s  -  2 mph 1021.1mb 60f 57f
9:00am 4ft 8s  -  2 mph 1020.7mb 60f 57f
8:00am 4ft 8s 9 11 mph 1020.2mb 60f 58f
7:00am 4.5ft 8s 2 4 mph 1020mb 59f 60f
6:00am 3.5ft 8s 4 7 mph 1019.8mb 60f 60f
5:00am 4ft 8s 7
mph
1019.6mb 60f 59f
4:00am 4ft 8s 2
mph
1019.8mb 60f 59f
3:00am 3.5ft 8s 4
mph
1019.7mb 60f 59f
2:00am 4ft 8s 2 4 mph 1019.8mb 60f 59f
1:00am 3.5ft 9s 7 9 mph 1019.6mb 60f 60f
12:00am 3.5ft 8s 4 7 mph 1019.7mb 60f 60f
Wed 07/20 11:00pm 3.5ft 9s 7 9 mph 1019.7mb 60f 60f
10:00pm 4ft 9s 7 9 mph 1019.8mb 60f 59f
9:00pm 4.5ft 9s 4 7 mph 1019.7mb 60f 60f
8:00pm 4.5ft 8s 7 9 mph 1020mb 60f 60f
7:00pm 4.5ft 8s 4 7 mph 1020.3mb 60f 59f